createdAt,value
2023-04-22T00:00:21.824Z,8.12
2023-04-22T00:01:21.829Z,8.12
2023-04-22T00:02:21.849Z,8.10
2023-04-22T00:03:21.916Z,8.09
2023-04-22T00:04:22.218Z,8.07
2023-04-22T00:05:21.957Z,8.04
2023-04-22T00:06:21.754Z,7.96
2023-04-22T00:07:21.718Z,7.92
2023-04-22T00:08:21.707Z,7.92
2023-04-22T00:09:21.724Z,7.91
2023-04-22T00:10:21.669Z,7.85
2023-04-22T00:11:21.861Z,7.88
2023-04-22T00:12:21.636Z,7.81
2023-04-22T00:13:21.653Z,7.84
2023-04-22T00:14:21.630Z,7.81
2023-04-22T00:15:21.640Z,7.82
2023-04-22T00:16:21.680Z,7.82
2023-04-22T00:17:21.597Z,7.81
2023-04-22T00:18:21.574Z,7.86
2023-04-22T00:19:21.570Z,7.82
2023-04-22T00:20:21.540Z,7.81
2023-04-22T00:21:21.780Z,7.84
2023-04-22T00:22:21.523Z,7.77
2023-04-22T00:23:21.515Z,7.81
2023-04-22T00:24:21.519Z,7.76
2023-04-22T00:25:22.418Z,7.73
2023-04-22T00:26:21.498Z,7.70
2023-04-22T00:27:21.455Z,7.66
2023-04-22T00:28:21.444Z,7.66
2023-04-22T00:29:21.440Z,7.62
2023-04-22T00:30:21.409Z,7.54
2023-04-22T00:31:21.498Z,7.47
2023-04-22T00:32:21.376Z,7.50
2023-04-22T00:33:21.381Z,7.41
2023-04-22T00:34:21.351Z,7.41
2023-04-22T00:35:21.353Z,7.39
2023-04-22T00:36:21.364Z,7.44
2023-04-22T00:37:21.313Z,7.34
2023-04-22T00:38:21.809Z,7.39
2023-04-22T00:39:21.306Z,7.36
2023-04-22T00:40:21.353Z,7.41
2023-04-22T00:41:21.320Z,7.39
2023-04-22T00:42:21.256Z,7.34
2023-04-22T00:43:21.259Z,7.33
2023-04-22T00:44:21.243Z,7.33
2023-04-22T00:45:21.231Z,7.29
2023-04-22T00:46:21.282Z,7.30
2023-04-22T00:47:21.181Z,7.29
2023-04-22T00:48:21.179Z,7.21
2023-04-22T00:49:21.177Z,7.26
2023-04-22T00:50:21.145Z,7.29
2023-04-22T00:51:21.165Z,7.32
2023-04-22T00:52:21.134Z,7.32
2023-04-22T00:53:21.932Z,7.29
2023-04-22T00:54:21.103Z,7.32
2023-04-22T00:55:21.101Z,7.36
2023-04-22T00:56:21.103Z,7.33
2023-04-22T00:57:21.048Z,7.29
2023-04-22T00:58:21.045Z,7.29
2023-04-22T00:59:21.038Z,7.36
2023-04-22T01:00:21.042Z,7.30
2023-04-22T01:01:21.104Z,7.30
2023-04-22T01:02:21.166Z,7.27
2023-04-22T01:03:21.170Z,7.33
2023-04-22T01:04:21.108Z,7.39
2023-04-22T01:05:20.937Z,7.36
2023-04-22T01:06:20.974Z,7.42
2023-04-22T01:07:20.938Z,7.44
2023-04-22T01:08:20.926Z,7.48
2023-04-22T01:09:20.915Z,7.52
2023-04-22T01:10:20.905Z,7.55
2023-04-22T01:11:20.909Z,7.54
2023-04-22T01:12:20.866Z,7.60
2023-04-22T01:13:20.841Z,7.63
2023-04-22T01:14:20.837Z,7.67
2023-04-22T01:15:20.817Z,7.67
2023-04-22T01:16:20.915Z,7.70
2023-04-22T01:17:20.816Z,7.73
2023-04-22T01:18:20.785Z,7.67
2023-04-22T01:19:20.800Z,7.69
2023-04-22T01:20:20.880Z,7.69
2023-04-22T01:21:20.760Z,7.60
2023-04-22T01:22:20.760Z,7.60
2023-04-22T01:23:20.736Z,7.55
2023-04-22T01:24:21.613Z,7.50
2023-04-22T01:25:20.729Z,7.48
2023-04-22T01:26:20.718Z,7.44
2023-04-22T01:27:20.666Z,7.45
2023-04-22T01:28:20.664Z,7.39
2023-04-22T01:29:20.650Z,7.37
2023-04-22T01:30:20.636Z,7.36
2023-04-22T01:31:20.724Z,7.30
2023-04-22T01:32:20.646Z,7.33
2023-04-22T01:33:20.593Z,7.27
2023-04-22T01:34:20.594Z,7.23
2023-04-22T01:35:20.559Z,7.16
2023-04-22T01:36:20.589Z,7.19
2023-04-22T01:37:20.530Z,7.12
2023-04-22T01:38:20.527Z,7.11
2023-04-22T01:39:20.524Z,7.08
2023-04-22T01:40:20.501Z,7.05
2023-04-22T01:41:20.526Z,7.07
2023-04-22T01:42:20.486Z,6.99
2023-04-22T01:43:20.456Z,7.01
2023-04-22T01:44:20.443Z,6.97
2023-04-22T01:45:20.439Z,6.99
2023-04-22T01:46:20.503Z,7.01
2023-04-22T01:47:20.403Z,7.00
2023-04-22T01:48:20.455Z,6.99
2023-04-22T01:49:20.404Z,6.99
2023-04-22T01:50:20.367Z,6.97
2023-04-22T01:51:20.374Z,6.99
2023-04-22T01:52:20.344Z,6.96
2023-04-22T01:53:20.325Z,6.94
2023-04-22T01:54:20.644Z,6.90
2023-04-22T01:55:20.790Z,6.94
2023-04-22T01:56:20.823Z,6.82
2023-04-22T01:57:20.265Z,6.86
2023-04-22T01:58:20.268Z,6.79
2023-04-22T01:59:20.280Z,6.73
2023-04-22T02:00:20.238Z,6.76
2023-04-22T02:01:20.291Z,6.72
2023-04-22T02:02:20.311Z,6.68
2023-04-22T02:03:20.384Z,6.61
2023-04-22T02:04:20.254Z,6.68
2023-04-22T02:05:20.159Z,6.65
2023-04-22T02:06:20.199Z,6.68
2023-04-22T02:07:20.145Z,6.64
2023-04-22T02:08:20.131Z,6.68
2023-04-22T02:09:20.831Z,6.64
2023-04-22T02:10:20.492Z,6.58
2023-04-22T02:11:20.119Z,6.61
2023-04-22T02:12:20.079Z,6.64
2023-04-22T02:13:20.057Z,6.61
2023-04-22T02:14:20.110Z,6.58
2023-04-22T02:15:20.044Z,6.60
2023-04-22T02:16:20.124Z,6.64
2023-04-22T02:17:20.001Z,6.64
2023-04-22T02:18:19.990Z,6.64
2023-04-22T02:19:19.997Z,6.65
2023-04-22T02:20:20.024Z,6.78
2023-04-22T02:21:19.988Z,6.73
2023-04-22T02:22:19.938Z,6.82
2023-04-22T02:23:19.955Z,6.89
2023-04-22T02:24:19.917Z,6.89
2023-04-22T02:25:19.896Z,6.96
2023-04-22T02:26:19.944Z,7.00
2023-04-22T02:27:19.876Z,6.99
2023-04-22T02:28:19.868Z,7.04
2023-04-22T02:29:19.861Z,7.11
2023-04-22T02:30:20.112Z,7.14
2023-04-22T02:31:19.882Z,7.19
2023-04-22T02:32:19.836Z,7.19
2023-04-22T02:33:19.787Z,7.24
2023-04-22T02:34:19.782Z,7.27
2023-04-22T02:35:19.770Z,7.37
2023-04-22T02:36:19.800Z,7.37
2023-04-22T02:37:19.749Z,7.41
2023-04-22T02:38:19.735Z,7.39
2023-04-22T02:39:19.725Z,7.41
2023-04-22T02:40:19.721Z,7.42
2023-04-22T02:41:20.534Z,7.42
2023-04-22T02:42:19.693Z,7.48
2023-04-22T02:43:19.695Z,7.48
2023-04-22T02:44:19.663Z,7.50
2023-04-22T02:45:19.664Z,7.52
2023-04-22T02:46:19.694Z,7.57
2023-04-22T02:47:19.603Z,7.54
2023-04-22T02:48:19.603Z,7.62
2023-04-22T02:49:19.639Z,7.67
2023-04-22T02:50:19.577Z,7.71
2023-04-22T02:51:19.584Z,7.74
2023-04-22T02:52:19.544Z,7.79
2023-04-22T02:53:19.531Z,7.89
2023-04-22T02:54:19.528Z,7.88
2023-04-22T02:55:19.518Z,7.89
2023-04-22T02:56:19.533Z,7.96
2023-04-22T02:57:19.491Z,7.95
2023-04-22T02:58:19.496Z,7.99
2023-04-22T02:59:19.482Z,7.99
2023-04-22T03:00:19.453Z,8.02
2023-04-22T03:01:19.528Z,8.03
2023-04-22T03:02:19.477Z,8.03
2023-04-22T03:03:19.598Z,8.02
2023-04-22T03:04:19.498Z,8.04
2023-04-22T03:05:19.370Z,8.02
2023-04-22T03:06:19.409Z,8.07
2023-04-22T03:07:19.346Z,8.06
2023-04-22T03:08:19.343Z,8.07
2023-04-22T03:09:19.616Z,8.07
2023-04-22T03:10:19.322Z,8.03
2023-04-22T03:11:19.336Z,8.04
2023-04-22T03:12:19.723Z,8.06
2023-04-22T03:13:19.265Z,8.12
2023-04-22T03:14:19.252Z,8.09
2023-04-22T03:15:21.404Z,8.12
2023-04-22T03:16:19.289Z,8.17
2023-04-22T03:17:19.241Z,8.13
2023-04-22T03:18:19.208Z,8.18
2023-04-22T03:19:19.218Z,8.14
2023-04-22T03:20:19.192Z,8.13
2023-04-22T03:21:19.215Z,8.22
2023-04-22T03:22:19.170Z,8.24
2023-04-22T03:23:19.186Z,8.24
2023-04-22T03:24:19.121Z,8.25
2023-04-22T03:25:19.125Z,8.25
2023-04-22T03:26:19.161Z,8.28
2023-04-22T03:27:19.221Z,8.31
2023-04-22T03:28:19.084Z,8.27
2023-04-22T03:29:19.063Z,8.31
2023-04-22T03:30:19.067Z,8.31
2023-04-22T03:31:19.098Z,8.25
2023-04-22T03:32:19.122Z,8.31
2023-04-22T03:33:19.063Z,8.34
2023-04-22T03:34:19.032Z,8.25
2023-04-22T03:35:19.036Z,8.27
2023-04-22T03:36:18.989Z,8.28
2023-04-22T03:37:19.155Z,8.21
2023-04-22T03:38:18.974Z,8.21
2023-04-22T03:39:19.364Z,8.18
2023-04-22T03:40:18.899Z,8.12
2023-04-22T03:41:18.860Z,8.14
2023-04-22T03:42:18.931Z,8.14
2023-04-22T03:43:20.296Z,8.20
2023-04-22T03:44:18.873Z,8.21
2023-04-22T03:45:18.857Z,8.20
2023-04-22T03:46:18.852Z,8.27
2023-04-22T03:47:18.818Z,8.25
2023-04-22T03:48:18.835Z,8.28
2023-04-22T03:49:18.882Z,8.31
2023-04-22T03:50:18.743Z,8.32
2023-04-22T03:51:18.723Z,8.32
2023-04-22T03:52:18.749Z,8.40
2023-04-22T03:53:18.703Z,8.39
2023-04-22T03:54:18.711Z,8.40
2023-04-22T03:55:18.667Z,8.42
2023-04-22T03:56:18.649Z,8.42
2023-04-22T03:57:18.678Z,8.45
2023-04-22T03:58:18.879Z,8.46
2023-04-22T03:59:18.608Z,8.47
2023-04-22T04:00:18.623Z,8.43
2023-04-22T04:01:18.656Z,8.52
2023-04-22T04:02:18.652Z,8.45
2023-04-22T04:03:18.758Z,8.45
2023-04-22T04:04:18.710Z,8.43
2023-04-22T04:05:18.638Z,8.47
2023-04-22T04:06:18.528Z,8.42
2023-04-22T04:07:18.531Z,8.43
2023-04-22T04:08:18.516Z,8.47
2023-04-22T04:09:18.481Z,8.46
2023-04-22T04:10:18.527Z,8.46
2023-04-22T04:11:18.446Z,8.47
2023-04-22T04:12:18.490Z,8.50
2023-04-22T04:13:18.428Z,8.50
2023-04-22T04:14:18.429Z,8.54
2023-04-22T04:15:18.410Z,8.55
2023-04-22T04:16:18.437Z,8.57
2023-04-22T04:17:18.455Z,8.63
2023-04-22T04:18:18.372Z,8.61
2023-04-22T04:19:18.362Z,8.65
2023-04-22T04:20:18.359Z,8.65
2023-04-22T04:21:18.338Z,8.70
2023-04-22T04:22:18.346Z,8.67
2023-04-22T04:23:18.298Z,8.75
2023-04-22T04:24:19.110Z,8.76
2023-04-22T04:25:18.282Z,8.78
2023-04-22T04:26:18.427Z,8.80
2023-04-22T04:27:18.279Z,8.83
2023-04-22T04:28:18.262Z,8.80
2023-04-22T04:29:18.766Z,8.82
2023-04-22T04:30:22.129Z,8.86
2023-04-22T04:31:18.354Z,8.83
2023-04-22T04:32:18.316Z,8.85
2023-04-22T04:33:18.277Z,8.86
2023-04-22T04:34:18.237Z,8.86
2023-04-22T04:35:18.139Z,8.91
2023-04-22T04:36:18.274Z,8.89
2023-04-22T04:37:19.089Z,8.88
2023-04-22T04:38:18.105Z,8.93
2023-04-22T04:39:18.083Z,8.96
2023-04-22T04:40:18.289Z,8.96
2023-04-22T04:41:18.094Z,8.96
2023-04-22T04:42:18.077Z,8.98
2023-04-22T04:43:18.958Z,8.97
2023-04-22T04:44:18.033Z,8.97
2023-04-22T04:45:18.007Z,9.01
2023-04-22T04:46:18.092Z,8.98
2023-04-22T04:47:18.004Z,8.98
2023-04-22T04:48:17.966Z,9.00
2023-04-22T04:49:17.948Z,9.03
2023-04-22T04:50:17.953Z,9.03
2023-04-22T04:51:20.211Z,9.04
2023-04-22T04:52:17.946Z,9.04
2023-04-22T04:53:17.992Z,9.03
2023-04-22T04:54:17.914Z,9.06
2023-04-22T04:55:17.880Z,9.01
2023-04-22T04:56:17.858Z,9.04
2023-04-22T04:57:22.078Z,9.04
2023-04-22T04:58:17.835Z,9.03
2023-04-22T04:59:17.866Z,9.06
2023-04-22T05:00:17.883Z,9.06
2023-04-22T05:01:17.839Z,9.08
2023-04-22T05:02:17.931Z,9.03
2023-04-22T05:03:17.890Z,9.03
2023-04-22T05:04:17.961Z,9.00
2023-04-22T05:05:17.750Z,9.04
2023-04-22T05:06:17.742Z,9.01
2023-04-22T05:07:17.755Z,9.06
2023-04-22T05:08:17.741Z,9.03
2023-04-22T05:09:17.713Z,9.04
2023-04-22T05:10:17.670Z,9.13
2023-04-22T05:11:17.683Z,9.06
2023-04-22T05:12:17.689Z,9.03
2023-04-22T05:13:17.635Z,9.04
2023-04-22T05:14:18.428Z,9.08
2023-04-22T05:15:18.494Z,9.08
2023-04-22T05:16:18.593Z,9.13
2023-04-22T05:17:17.620Z,9.12
2023-04-22T05:18:17.565Z,9.13
2023-04-22T05:19:17.575Z,9.16
2023-04-22T05:20:17.577Z,9.22
2023-04-22T05:21:17.537Z,9.27
2023-04-22T05:22:17.675Z,9.30
2023-04-22T05:23:17.518Z,9.30
2023-04-22T05:24:18.458Z,9.32
2023-04-22T05:25:17.490Z,9.35
2023-04-22T05:26:17.467Z,9.40
2023-04-22T05:27:17.491Z,9.44
2023-04-22T05:28:17.438Z,9.52
2023-04-22T05:29:17.537Z,9.52
2023-04-22T05:30:17.491Z,9.60
2023-04-22T05:31:17.620Z,9.63
2023-04-22T05:32:17.624Z,9.63
2023-04-22T05:33:17.484Z,9.73
2023-04-22T05:34:17.354Z,9.77
2023-04-22T05:35:17.431Z,9.78
2023-04-22T05:36:17.506Z,9.86
2023-04-22T05:37:17.357Z,9.89
2023-04-22T05:38:17.314Z,9.96
2023-04-22T05:39:17.293Z,9.99
2023-04-22T05:40:17.286Z,10.07
2023-04-22T05:41:17.277Z,10.11
2023-04-22T05:42:17.287Z,10.16
2023-04-22T05:43:17.241Z,10.24
2023-04-22T05:44:17.239Z,10.26
2023-04-22T05:45:17.553Z,10.31
2023-04-22T05:46:17.612Z,10.42
2023-04-22T05:47:17.224Z,10.46
2023-04-22T05:48:17.177Z,10.55
2023-04-22T05:49:17.164Z,10.62
2023-04-22T05:50:17.154Z,10.68
2023-04-22T05:51:17.139Z,10.72
2023-04-22T05:52:17.157Z,10.80
2023-04-22T05:53:17.123Z,10.88
2023-04-22T05:54:17.091Z,10.93
2023-04-22T05:55:17.094Z,10.99
2023-04-22T05:56:17.063Z,11.08
2023-04-22T05:57:17.106Z,11.13
2023-04-22T05:58:17.058Z,11.23
2023-04-22T05:59:18.838Z,11.30
2023-04-22T06:00:17.495Z,11.33
2023-04-22T06:01:17.492Z,11.38
2023-04-22T06:02:17.147Z,11.42
2023-04-22T06:03:17.217Z,11.49
2023-04-22T06:04:17.238Z,11.54
2023-04-22T06:05:17.031Z,11.63
2023-04-22T06:06:16.948Z,11.72
2023-04-22T06:07:16.972Z,11.78
2023-04-22T06:08:16.911Z,11.84
2023-04-22T06:09:16.895Z,11.90
2023-04-22T06:10:17.644Z,11.98
2023-04-22T06:11:16.875Z,12.08
2023-04-22T06:12:16.883Z,12.13
2023-04-22T06:13:16.860Z,12.19
2023-04-22T06:14:16.833Z,12.19
2023-04-22T06:15:16.845Z,12.29
2023-04-22T06:16:16.861Z,12.40
2023-04-22T06:17:16.821Z,12.48
2023-04-22T06:18:16.777Z,12.56
2023-04-22T06:19:16.771Z,12.58
2023-04-22T06:20:16.754Z,12.58
2023-04-22T06:21:16.742Z,12.62
2023-04-22T06:22:16.764Z,12.70
2023-04-22T06:23:16.723Z,12.70
2023-04-22T06:24:16.698Z,12.77
2023-04-22T06:25:16.691Z,12.84
2023-04-22T06:26:16.688Z,12.87
2023-04-22T06:27:16.665Z,12.92
2023-04-22T06:28:16.680Z,12.87
2023-04-22T06:29:16.639Z,12.92
2023-04-22T06:30:16.627Z,12.98
2023-04-22T06:31:18.159Z,13.09
2023-04-22T06:32:17.331Z,13.16
2023-04-22T06:33:17.495Z,13.24
2023-04-22T06:34:16.566Z,13.22
2023-04-22T06:35:16.554Z,13.28
2023-04-22T06:36:16.551Z,13.32
2023-04-22T06:37:16.561Z,13.44
2023-04-22T06:38:16.513Z,13.47
2023-04-22T06:39:16.506Z,13.53
2023-04-22T06:40:16.495Z,13.59
2023-04-22T06:41:16.481Z,13.57
2023-04-22T06:42:16.482Z,13.68
2023-04-22T06:43:16.451Z,13.80
2023-04-22T06:44:20.514Z,13.86
2023-04-22T06:45:16.422Z,13.87
2023-04-22T06:46:16.433Z,13.93
2023-04-22T06:47:16.443Z,13.96
2023-04-22T06:48:16.377Z,14.02
2023-04-22T06:49:17.296Z,14.11
2023-04-22T06:50:16.360Z,14.23
2023-04-22T06:51:16.804Z,14.38
2023-04-22T06:52:16.362Z,14.48
2023-04-22T06:53:16.323Z,14.56
2023-04-22T06:54:16.316Z,14.59
2023-04-22T06:55:16.290Z,14.52
2023-04-22T06:56:16.269Z,14.45
2023-04-22T06:57:16.307Z,14.48
2023-04-22T06:58:16.242Z,14.52
2023-04-22T06:59:16.256Z,14.57
2023-04-22T07:00:16.216Z,14.63
2023-04-22T07:01:16.212Z,14.67
2023-04-22T07:02:16.955Z,14.72
2023-04-22T07:03:16.244Z,14.82
2023-04-22T07:04:16.192Z,14.79
2023-04-22T07:05:16.153Z,14.83
2023-04-22T07:06:16.144Z,14.87
2023-04-22T07:07:16.149Z,14.97
2023-04-22T07:08:16.157Z,14.95
2023-04-22T07:09:16.100Z,14.97
2023-04-22T07:10:16.082Z,14.91
2023-04-22T07:11:16.085Z,14.86
2023-04-22T07:12:16.095Z,14.93
2023-04-22T07:13:16.048Z,15.00
2023-04-22T07:14:16.027Z,15.09
2023-04-22T07:15:16.022Z,15.18
2023-04-22T07:16:16.021Z,15.22
2023-04-22T07:17:16.136Z,15.40
2023-04-22T07:18:16.137Z,15.44
2023-04-22T07:19:15.976Z,15.59
2023-04-22T07:20:15.952Z,15.74
2023-04-22T07:21:15.948Z,15.80
2023-04-22T07:22:15.979Z,15.91
2023-04-22T07:23:16.196Z,15.84
2023-04-22T07:24:15.907Z,15.91
2023-04-22T07:25:15.898Z,16.01
2023-04-22T07:26:15.874Z,16.08
2023-04-22T07:27:15.884Z,16.17
2023-04-22T07:28:15.933Z,16.33
2023-04-22T07:29:16.136Z,16.48
2023-04-22T07:30:15.816Z,16.90
2023-04-22T07:31:15.813Z,17.18
2023-04-22T07:32:16.148Z,17.58
2023-04-22T07:33:15.834Z,17.60
2023-04-22T07:34:15.759Z,17.71
2023-04-22T07:35:15.770Z,17.95
2023-04-22T07:36:15.730Z,18.13
2023-04-22T07:37:15.760Z,18.42
2023-04-22T07:38:15.721Z,18.29
2023-04-22T07:39:15.722Z,18.02
2023-04-22T07:40:15.677Z,17.81
2023-04-22T07:41:15.671Z,17.53
2023-04-22T07:42:15.684Z,17.49
2023-04-22T07:43:15.657Z,17.43
2023-04-22T07:44:15.629Z,17.43
2023-04-22T07:45:15.638Z,17.33
2023-04-22T07:46:15.710Z,17.27
2023-04-22T07:47:15.622Z,17.22
2023-04-22T07:48:15.569Z,17.33
2023-04-22T07:49:15.578Z,17.27
2023-04-22T07:50:15.728Z,17.25
2023-04-22T07:51:15.584Z,17.25
2023-04-22T07:52:15.658Z,17.12
2023-04-22T07:53:15.578Z,16.91
2023-04-22T07:54:15.573Z,16.92
2023-04-22T07:55:15.494Z,16.99
2023-04-22T07:56:15.581Z,17.22
2023-04-22T07:57:15.509Z,17.36
2023-04-22T07:58:15.554Z,17.40
2023-04-22T07:59:15.427Z,17.53
2023-04-22T08:00:15.491Z,17.53
2023-04-22T08:01:16.726Z,17.68
2023-04-22T08:02:20.144Z,18.07
2023-04-22T08:03:15.571Z,18.23
2023-04-22T08:04:15.667Z,18.28
2023-04-22T08:05:15.429Z,18.21
2023-04-22T08:06:15.349Z,18.28
2023-04-22T08:08:15.447Z,18.59
2023-04-22T08:09:15.314Z,18.84
2023-04-22T08:10:15.357Z,18.83
2023-04-22T08:11:15.282Z,18.69
2023-04-22T08:12:15.283Z,18.68
2023-04-22T08:13:16.468Z,18.53
2023-04-22T08:14:15.250Z,18.49
2023-04-22T08:15:15.226Z,18.54
2023-04-22T08:16:15.222Z,18.56
2023-04-22T08:17:15.241Z,18.46
2023-04-22T08:18:15.203Z,18.49
2023-04-22T08:19:15.189Z,18.59
2023-04-22T08:20:15.163Z,18.64
2023-04-22T08:21:15.174Z,18.84
2023-04-22T08:22:15.136Z,19.12
2023-04-22T08:23:15.160Z,19.16
2023-04-22T08:24:15.116Z,19.20
2023-04-22T08:25:15.175Z,19.13
2023-04-22T08:26:15.078Z,19.20
2023-04-22T08:27:15.076Z,19.30
2023-04-22T08:28:15.094Z,19.46
2023-04-22T08:29:15.065Z,19.49
2023-04-22T08:30:15.044Z,19.52
2023-04-22T08:31:15.056Z,19.58
2023-04-22T08:32:15.018Z,19.52
2023-04-22T08:33:15.045Z,19.75
2023-04-22T08:34:15.857Z,19.75
2023-04-22T08:35:14.989Z,19.64
2023-04-22T08:36:14.955Z,19.61
2023-04-22T08:37:14.963Z,19.72
2023-04-22T08:38:14.962Z,19.71
2023-04-22T08:39:14.910Z,19.71
2023-04-22T08:40:14.902Z,19.79
2023-04-22T08:41:14.908Z,19.82
2023-04-22T08:42:14.876Z,19.70
2023-04-22T08:43:14.882Z,19.82
2023-04-22T08:44:14.852Z,19.89
2023-04-22T08:45:14.841Z,20.00
2023-04-22T08:46:14.837Z,20.17
2023-04-22T08:47:14.835Z,20.37
2023-04-22T08:48:14.810Z,20.63
2023-04-22T08:49:15.705Z,20.85
2023-04-22T08:50:14.850Z,21.05
2023-04-22T08:51:14.829Z,21.15
2023-04-22T08:52:14.796Z,20.98
2023-04-22T08:53:14.741Z,20.68
2023-04-22T08:54:14.711Z,20.69
2023-04-22T08:55:14.701Z,20.81
2023-04-22T08:56:14.690Z,21.06
2023-04-22T08:57:14.724Z,21.52
2023-04-22T08:58:14.664Z,21.89
2023-04-22T08:59:14.697Z,22.35
2023-04-22T09:00:14.632Z,22.66
2023-04-22T09:01:14.659Z,22.44
2023-04-22T09:02:14.663Z,22.46
2023-04-22T09:03:14.687Z,22.49
2023-04-22T09:04:14.652Z,22.49
2023-04-22T09:05:14.588Z,22.42
2023-04-22T09:06:14.559Z,22.52
2023-04-22T09:07:14.576Z,22.60
2023-04-22T09:08:14.535Z,22.84
2023-04-22T09:09:14.548Z,22.97
2023-04-22T09:10:14.503Z,22.88
2023-04-22T09:11:14.494Z,22.70
2023-04-22T09:12:14.542Z,22.69
2023-04-22T09:13:14.460Z,22.91
2023-04-22T09:14:14.461Z,22.81
2023-04-22T09:15:14.446Z,22.91
2023-04-22T09:16:14.465Z,23.06
2023-04-22T09:17:14.449Z,22.70
2023-04-22T09:18:14.400Z,22.76
2023-04-22T09:19:15.133Z,22.88
2023-04-22T09:20:14.378Z,22.75
2023-04-22T09:21:14.349Z,22.96
2023-04-22T09:22:14.398Z,23.21
2023-04-22T09:23:14.338Z,23.19
2023-04-22T09:24:14.318Z,23.19
2023-04-22T09:25:14.300Z,23.42
2023-04-22T09:26:14.290Z,23.72
2023-04-22T09:27:14.309Z,23.93
2023-04-22T09:28:14.272Z,23.94
2023-04-22T09:29:14.257Z,23.53
2023-04-22T09:30:14.305Z,23.39
2023-04-22T09:31:14.222Z,23.32
2023-04-22T09:32:14.458Z,23.32
2023-04-22T09:33:14.203Z,23.18
2023-04-22T09:34:14.187Z,23.29
2023-04-22T09:35:14.170Z,23.23
2023-04-22T09:36:14.158Z,23.23
2023-04-22T09:37:14.171Z,23.39
2023-04-22T09:38:14.145Z,23.53
2023-04-22T09:39:14.113Z,23.75
2023-04-22T09:40:14.110Z,23.69
2023-04-22T09:41:14.087Z,23.93
2023-04-22T09:42:14.120Z,24.16
2023-04-22T09:43:14.063Z,24.15
2023-04-22T09:44:14.051Z,23.96
2023-04-22T09:45:14.042Z,23.81
2023-04-22T09:46:14.033Z,23.94
2023-04-22T09:47:14.031Z,24.08
2023-04-22T09:48:14.009Z,24.26
2023-04-22T09:49:13.981Z,24.33
2023-04-22T09:50:13.971Z,24.33
2023-04-22T09:51:13.952Z,24.33
2023-04-22T09:52:13.970Z,24.21
2023-04-22T09:53:13.919Z,23.81
2023-04-22T09:54:13.914Z,23.63
2023-04-22T09:55:13.901Z,23.57
2023-04-22T09:56:13.901Z,23.52
2023-04-22T09:57:13.909Z,23.59
2023-04-22T09:58:13.853Z,23.81
2023-04-22T09:59:13.870Z,23.84
2023-04-22T10:00:13.839Z,23.93
2023-04-22T10:01:13.859Z,23.82
2023-04-22T10:02:13.876Z,23.94
2023-04-22T10:03:14.117Z,24.09
2023-04-22T10:04:13.922Z,23.99
2023-04-22T10:05:13.771Z,24.31
2023-04-22T10:06:13.769Z,24.30
2023-04-22T10:07:13.834Z,24.18
2023-04-22T10:08:13.761Z,24.15
2023-04-22T10:09:13.707Z,24.19
2023-04-22T10:10:13.752Z,24.00
2023-04-22T10:11:13.682Z,24.12
2023-04-22T10:12:14.120Z,24.29
2023-04-22T10:13:13.715Z,24.34
2023-04-22T10:14:13.647Z,24.36
2023-04-22T10:15:13.854Z,24.02
2023-04-22T10:16:13.630Z,24.02
2023-04-22T10:17:13.635Z,24.11
2023-04-22T10:18:13.651Z,23.94
2023-04-22T10:19:13.583Z,23.96
2023-04-22T10:20:13.581Z,24.02
2023-04-22T10:21:13.547Z,23.97
2023-04-22T10:22:13.566Z,23.93
2023-04-22T10:23:14.148Z,23.79
2023-04-22T10:24:13.511Z,23.71
2023-04-22T10:25:13.492Z,23.81
2023-04-22T10:26:13.486Z,24.00
2023-04-22T10:27:13.476Z,24.08
2023-04-22T10:28:13.491Z,23.99
2023-04-22T10:29:13.437Z,24.00
2023-04-22T10:30:13.438Z,24.21
2023-04-22T10:31:13.474Z,24.15
2023-04-22T10:32:13.397Z,23.97
2023-04-22T10:33:13.505Z,24.15
2023-04-22T10:34:13.628Z,24.27
2023-04-22T10:35:13.362Z,24.30
2023-04-22T10:36:13.398Z,24.12
2023-04-22T10:37:14.097Z,24.29
2023-04-22T10:38:13.505Z,24.46
2023-04-22T10:39:13.635Z,24.63
2023-04-22T10:40:13.520Z,24.84
2023-04-22T10:41:13.484Z,24.66
2023-04-22T10:42:13.321Z,24.68
2023-04-22T10:43:13.275Z,24.66
2023-04-22T10:44:13.372Z,24.90
2023-04-22T10:45:13.227Z,25.09
2023-04-22T10:46:13.268Z,25.20
2023-04-22T10:47:13.199Z,25.09
2023-04-22T10:48:13.214Z,24.93
2023-04-22T10:49:13.255Z,24.87
2023-04-22T10:50:13.160Z,24.70
2023-04-22T10:51:13.144Z,24.39
2023-04-22T10:52:13.140Z,23.94
2023-04-22T10:53:13.259Z,23.84
2023-04-22T10:54:13.126Z,23.90
2023-04-22T10:55:13.125Z,23.90
2023-04-22T10:56:13.095Z,23.96
2023-04-22T10:57:13.063Z,24.02
2023-04-22T10:58:13.137Z,23.74
2023-04-22T10:59:13.185Z,23.52
2023-04-22T11:00:13.216Z,23.26
2023-04-22T11:01:13.199Z,23.42
2023-04-22T11:02:13.021Z,23.57
2023-04-22T11:03:13.370Z,23.72
2023-04-22T11:04:13.278Z,24.00
2023-04-22T11:05:12.957Z,24.16
2023-04-22T11:06:13.250Z,23.96
2023-04-22T11:07:12.942Z,23.79
2023-04-22T11:08:13.288Z,23.57
2023-04-22T11:09:13.011Z,23.49
2023-04-22T11:10:12.900Z,23.23
2023-04-22T11:11:12.885Z,23.19
2023-04-22T11:12:12.886Z,23.37
2023-04-22T11:13:12.877Z,23.56
2023-04-22T11:14:12.857Z,23.68
2023-04-22T11:15:12.821Z,23.67
2023-04-22T11:16:12.837Z,23.64
2023-04-22T11:17:12.813Z,23.81
2023-04-22T11:18:12.835Z,23.78
2023-04-22T11:19:12.769Z,24.00
2023-04-22T11:20:12.787Z,24.21
2023-04-22T11:21:12.751Z,24.16
2023-04-22T11:22:12.752Z,24.14
2023-04-22T11:23:12.758Z,24.18
2023-04-22T11:24:12.725Z,24.39
2023-04-22T11:25:12.694Z,24.19
2023-04-22T11:26:12.845Z,24.21
2023-04-22T11:27:12.670Z,24.23
2023-04-22T11:28:12.690Z,24.16
2023-04-22T11:29:12.634Z,24.09
2023-04-22T11:30:12.626Z,24.14
2023-04-22T11:31:12.663Z,24.21
2023-04-22T11:32:12.606Z,24.42
2023-04-22T11:33:12.615Z,24.70
2023-04-22T11:34:12.577Z,24.77
2023-04-22T11:35:12.556Z,24.77
2023-04-22T11:36:12.576Z,24.98
2023-04-22T11:37:12.541Z,25.09
2023-04-22T11:38:12.560Z,25.11
2023-04-22T11:39:12.506Z,25.12
2023-04-22T11:41:12.501Z,25.09
2023-04-22T11:42:12.474Z,25.08
2023-04-22T11:43:12.483Z,25.04
2023-04-22T11:44:12.450Z,25.04
2023-04-22T11:45:12.425Z,25.05
2023-04-22T11:46:12.446Z,24.86
2023-04-22T11:47:12.414Z,24.77
2023-04-22T11:48:12.449Z,24.83
2023-04-22T11:49:12.389Z,24.97
2023-04-22T11:50:12.438Z,25.04
2023-04-22T11:51:12.385Z,25.08
2023-04-22T11:52:12.358Z,24.83
2023-04-22T11:53:12.354Z,24.63
2023-04-22T11:54:12.310Z,24.36
2023-04-22T11:55:12.300Z,24.42
2023-04-22T11:56:12.289Z,24.56
2023-04-22T11:57:12.271Z,24.74
2023-04-22T11:58:12.298Z,24.90
2023-04-22T11:59:12.240Z,24.84
2023-04-22T12:00:12.279Z,24.63
2023-04-22T12:01:12.219Z,24.56
2023-04-22T12:02:12.340Z,24.52
2023-04-22T12:03:14.725Z,24.44
2023-04-22T12:04:12.420Z,24.55
2023-04-22T12:05:12.201Z,24.80
2023-04-22T12:06:12.269Z,24.93
2023-04-22T12:07:14.956Z,25.17
2023-04-22T12:08:12.160Z,25.30
2023-04-22T12:09:13.882Z,25.26
2023-04-22T12:10:12.179Z,25.38
2023-04-22T12:11:12.102Z,25.14
2023-04-22T12:12:12.097Z,24.87
2023-04-22T12:13:12.323Z,24.92
2023-04-22T12:14:12.180Z,25.08
2023-04-22T12:15:13.776Z,25.04
2023-04-22T12:16:12.028Z,24.84
2023-04-22T12:17:12.360Z,24.64
2023-04-22T12:18:12.031Z,24.64
2023-04-22T12:19:11.978Z,24.53
2023-04-22T12:20:12.032Z,24.34
2023-04-22T12:21:11.961Z,24.30
2023-04-22T12:22:11.986Z,24.55
2023-04-22T12:23:11.965Z,24.64
2023-04-22T12:24:11.948Z,24.66
2023-04-22T12:25:11.959Z,24.63
2023-04-22T12:26:11.923Z,24.56
2023-04-22T12:27:11.882Z,24.26
2023-04-22T12:28:11.962Z,23.87
2023-04-22T12:29:11.860Z,23.64
2023-04-22T12:30:11.853Z,23.74
2023-04-22T12:31:11.899Z,23.72
2023-04-22T12:32:11.829Z,23.96
2023-04-22T12:33:11.832Z,24.00
2023-04-22T12:34:11.789Z,24.24
2023-04-22T12:35:11.781Z,24.64
2023-04-22T12:36:11.832Z,24.74
2023-04-22T12:37:11.749Z,24.67
2023-04-22T12:38:11.771Z,24.77
2023-04-22T12:39:11.725Z,24.84
2023-04-22T12:40:12.135Z,25.04
2023-04-22T12:41:12.639Z,25.11
2023-04-22T12:42:11.713Z,25.23
2023-04-22T12:43:11.716Z,25.30
2023-04-22T12:44:11.723Z,25.07
2023-04-22T12:45:11.654Z,24.89
2023-04-22T12:46:11.765Z,24.29
2023-04-22T12:47:11.617Z,23.89
2023-04-22T12:48:11.844Z,23.77
2023-04-22T12:49:11.775Z,23.81
2023-04-22T12:50:11.627Z,23.89
2023-04-22T12:51:11.673Z,24.04
2023-04-22T12:52:11.559Z,23.99
2023-04-22T12:53:11.733Z,23.97
2023-04-22T12:54:11.576Z,23.75
2023-04-22T12:55:11.508Z,23.54
2023-04-22T12:56:12.221Z,23.29
2023-04-22T12:57:12.253Z,23.12
2023-04-22T12:58:11.500Z,23.19
2023-04-22T12:59:12.411Z,23.39
2023-04-22T13:00:11.506Z,23.32
2023-04-22T13:01:11.573Z,23.50
2023-04-22T13:02:11.544Z,23.97
2023-04-22T13:03:11.766Z,24.45
2023-04-22T13:04:11.519Z,24.87
2023-04-22T13:05:11.377Z,25.27